Time;durP1;ratioP1;P1;durP2;ratioP2;P2;SDS_P1;SDS_P2;PMS_P1;PMS_P2;Temp;Humidity;BMP_temperature;BMP_pressure;BME280_temperature;BME280_humidity;BME280_pressure;Samples;Min_cycle;Max_cycle;Signal;HPM_P1;HPM_P2
2021/09/17 00:00:24;;;;;;;6.28;4.63;;;;;;;17.63;69.85;100302.41;10285387;28;20061;-61
2021/09/17 00:05:26;;;;;;;5.28;4.78;;;;;;;17.58;70.18;100300.22;10286978;28;20124;-62
2021/09/17 00:10:28;;;;;;;5.70;4.38;;;;;;;17.57;70.41;100303.91;10287456;28;20158;-61
2021/09/17 00:15:29;;;;;;;5.50;4.47;;;;;;;17.48;70.33;100300.38;10288249;28;20634;-61
2021/09/17 00:20:31;;;;;;;5.72;4.03;;;;;;;17.41;70.53;100293.97;10289744;28;20066;-60
2021/09/17 00:25:33;;;;;;;4.65;4.22;;;;;;;17.41;70.87;100293.16;10285424;28;20125;-60
2021/09/17 00:30:34;;;;;;;5.00;4.50;;;;;;;17.37;70.94;100291.78;10294621;28;20113;-61
2021/09/17 00:35:36;;;;;;;4.75;4.30;;;;;;;17.31;71.21;100282.56;10296696;28;20142;-61
2021/09/17 00:40:37;;;;;;;7.63;5.47;;;;;;;17.18;72.03;100288.41;10290325;28;20450;-61
2021/09/17 00:45:39;;;;;;;5.20;4.80;;;;;;;17.26;72.16;100291.13;10254142;28;20133;-60
2021/09/17 00:50:40;;;;;;;5.97;5.40;;;;;;;17.20;72.52;100290.94;10248353;28;20133;-61
2021/09/17 00:55:42;;;;;;;11.48;6.68;;;;;;;17.16;72.79;100286.91;10242405;28;20047;-60
2021/09/17 01:00:43;;;;;;;6.18;5.40;;;;;;;17.06;72.83;100270.94;10269762;28;20129;-61
2021/09/17 01:05:45;;;;;;;5.50;4.90;;;;;;;17.06;73.05;100279.00;10261137;28;20049;-61
2021/09/17 01:10:46;;;;;;;8.10;5.15;;;;;;;17.10;73.11;100283.88;10259790;28;20128;-61
2021/09/17 01:15:48;;;;;;;5.13;4.65;;;;;;;17.11;72.80;100282.88;10292592;28;20066;-60
2021/09/17 01:20:49;;;;;;;5.85;5.20;;;;;;;17.19;72.86;100273.13;10273866;28;20066;-61
2021/09/17 01:25:51;;;;;;;6.40;5.90;;;;;;;17.19;72.72;100273.97;10254116;28;20093;-61
2021/09/17 01:30:52;;;;;;;5.40;4.90;;;;;;;17.18;72.58;100261.53;10249965;28;20066;-61
2021/09/17 01:35:56;;;;;;;5.70;4.95;;;;;;;17.21;71.70;100261.19;10256566;28;20048;-61
2021/09/17 01:40:58;;;;;;;6.10;5.60;;;;;;;17.16;72.13;100254.63;10291794;28;20874;-64
2021/09/17 01:46:00;;;;;;;5.65;4.95;;;;;;;17.09;72.74;100251.78;10279390;28;20046;-61
2021/09/17 01:51:01;;;;;;;10.52;5.55;;;;;;;17.09;73.43;100246.38;10287514;28;20463;-61
2021/09/17 01:56:03;;;;;;;7.10;6.38;;;;;;;17.17;73.31;100243.69;10279737;28;20073;-61
2021/09/17 02:01:05;;;;;;;6.47;5.90;;;;;;;17.02;73.90;100256.94;10276049;28;20130;-61
2021/09/17 02:06:07;;;;;;;7.55;6.78;;;;;;;16.90;74.59;100258.28;10252084;28;20114;-61
2021/09/17 02:11:08;;;;;;;7.13;6.53;;;;;;;16.77;75.12;100256.06;10255047;28;20671;-61
2021/09/17 02:16:10;;;;;;;7.18;6.47;;;;;;;16.69;75.44;100256.00;10280771;28;20484;-61
2021/09/17 02:21:18;;;;;;;7.30;6.05;;;;;;;16.64;75.71;100253.81;10272083;28;20494;-61
2021/09/17 02:26:19;;;;;;;11.13;6.60;;;;;;;16.65;75.73;100254.66;10259552;28;20110;-61
2021/09/17 02:31:21;;;;;;;7.03;6.13;;;;;;;16.72;75.61;100251.16;10253633;28;20058;-61
2021/09/17 02:36:22;;;;;;;8.20;6.65;;;;;;;16.77;75.40;100253.38;10283067;28;22089;-61
2021/09/17 02:41:24;;;;;;;11.52;6.25;;;;;;;16.72;75.40;100242.25;10258681;23;20051;-56
2021/09/17 02:46:25;;;;;;;7.50;6.00;;;;;;;16.63;75.89;100222.56;10255889;28;20055;-56
2021/09/17 02:51:27;;;;;;;7.65;5.82;;;;;;;16.74;75.86;100237.56;10251131;28;20102;-56
2021/09/17 02:56:28;;;;;;;8.90;6.18;;;;;;;16.65;76.15;100235.84;10265274;28;20643;-56
2021/09/17 03:01:29;;;;;;;9.23;6.30;;;;;;;16.61;76.15;100238.03;10228632;28;20360;-56
2021/09/17 03:06:31;;;;;;;6.97;6.28;;;;;;;16.57;76.50;100231.28;10219836;28;20075;-56
2021/09/17 03:11:33;;;;;;;7.70;6.43;;;;;;;16.51;76.33;100213.97;10222512;28;20137;-56
2021/09/17 03:16:34;;;;;;;6.90;6.05;;;;;;;16.60;76.14;100221.06;10269336;28;20126;-60
2021/09/17 03:21:35;;;;;;;6.60;6.03;;;;;;;16.55;76.14;100218.00;10242662;28;20055;-56
2021/09/17 03:26:37;;;;;;;7.68;6.57;;;;;;;16.48;76.46;100216.97;10211712;28;20079;-56
2021/09/17 03:31:39;;;;;;;7.13;6.43;;;;;;;16.38;76.26;100208.22;10215279;28;20067;-57
2021/09/17 03:36:43;;;;;;;8.63;5.95;;;;;;;16.33;75.81;100213.22;10248384;28;20141;-56
2021/09/17 03:41:45;;;;;;;7.93;6.57;;;;;;;16.20;76.00;100206.47;10238629;28;20223;-56
2021/09/17 03:46:47;;;;;;;7.95;6.15;;;;;;;16.17;76.36;100196.06;10251999;28;20050;-56
2021/09/17 03:51:48;;;;;;;6.70;6.20;;;;;;;16.21;76.57;100210.00;10240712;28;20516;-56
2021/09/17 03:56:49;;;;;;;7.75;6.55;;;;;;;16.23;77.06;100208.00;10228425;28;20212;-57
2021/09/17 04:01:51;;;;;;;8.73;6.80;;;;;;;16.33;76.90;100210.53;10228634;28;20074;-56
2021/09/17 04:06:52;;;;;;;6.97;6.28;;;;;;;16.41;77.08;100213.28;10265051;28;20067;-57
2021/09/17 04:11:54;;;;;;;7.38;6.65;;;;;;;16.37;76.83;100215.44;10251104;28;20126;-56
2021/09/17 04:16:56;;;;;;;6.43;5.85;;;;;;;16.38;76.90;100208.22;10219273;28;20055;-58
2021/09/17 04:21:57;;;;;;;7.68;6.38;;;;;;;16.35;77.65;100213.91;10237700;28;20070;-57
2021/09/17 04:26:58;;;;;;;6.55;5.75;;;;;;;16.39;77.48;100212.56;10228672;28;20086;-57
2021/09/17 04:32:00;;;;;;;8.23;6.55;;;;;;;16.37;77.14;100215.44;10244099;28;20063;-57
2021/09/17 04:37:01;;;;;;;7.28;6.68;;;;;;;16.35;77.39;100217.44;10257693;28;20059;-57
2021/09/17 04:42:04;;;;;;;9.63;7.38;;;;;;;16.28;77.32;100212.88;10226984;28;20079;-57
2021/09/17 04:47:05;;;;;;;7.82;6.93;;;;;;;16.15;77.74;100206.09;10219587;28;20137;-57
2021/09/17 04:52:07;;;;;;;8.07;7.30;;;;;;;16.00;78.34;100210.41;10219491;28;20138;-57
2021/09/17 04:57:08;;;;;;;7.75;7.07;;;;;;;15.92;78.31;100215.72;10235558;28;20067;-60
2021/09/17 05:02:10;;;;;;;9.38;6.60;;;;;;;15.88;78.33;100221.44;10204706;28;20098;-56
2021/09/17 05:07:12;;;;;;;8.18;6.90;;;;;;;15.92;78.42;100215.72;10220832;28;20440;-56
2021/09/17 05:12:13;;;;;;;8.55;7.20;;;;;;;15.85;78.76;100216.38;10258620;28;20499;-55
2021/09/17 05:17:14;;;;;;;8.27;7.47;;;;;;;15.87;78.73;100224.28;10240303;28;20084;-56
2021/09/17 05:22:16;;;;;;;9.25;8.07;;;;;;;15.87;78.93;100230.47;10258876;28;20144;-56
2021/09/17 05:27:17;;;;;;;10.60;7.70;;;;;;;15.86;78.78;100223.41;10261894;28;20081;-57
2021/09/17 05:32:20;;;;;;;8.77;7.53;;;;;;;15.92;78.60;100231.84;10257707;28;20496;-56
2021/09/17 05:37:22;;;;;;;10.52;9.00;;;;;;;15.88;78.44;100205.31;10251331;28;20058;-54
2021/09/17 05:42:24;;;;;;;8.77;7.97;;;;;;;15.92;78.82;100216.56;10252902;28;20070;-56
2021/09/17 05:47:25;;;;;;;9.23;8.32;;;;;;;16.00;78.88;100226.50;10256095;28;20118;-55
2021/09/17 05:52:27;;;;;;;9.38;7.47;;;;;;;16.02;78.68;100237.94;10234963;28;20136;-58
2021/09/17 05:57:29;;;;;;;10.57;8.20;;;;;;;15.95;77.81;100236.88;10265338;28;20398;-57
2021/09/17 06:02:30;;;;;;;9.40;8.30;;;;;;;16.05;77.59;100246.50;10256922;28;20081;-59
2021/09/17 06:07:32;;;;;;;11.80;9.48;;;;;;;16.00;77.11;100231.88;10205972;28;20199;-58
2021/09/17 06:12:38;;;;;;;10.85;9.23;;;;;;;16.00;77.24;100235.41;10216753;28;20058;-59
2021/09/17 06:17:40;;;;;;;9.73;8.73;;;;;;;16.00;77.08;100237.25;10201176;28;20071;-57
2021/09/17 06:22:45;;;;;;;9.32;8.30;;;;;;;16.16;76.73;100245.38;10198947;28;20070;-55
2021/09/17 06:27:47;;;;;;;8.85;7.90;;;;;;;16.21;76.63;100248.44;10206866;28;21716;-57
2021/09/17 06:32:49;;;;;;;8.85;7.95;;;;;;;16.22;76.39;100255.47;10216094;28;20646;-55
2021/09/17 06:37:53;;;;;;;10.00;8.38;;;;;;;16.17;76.33;100236.34;10201454;28;20158;-57
2021/09/17 06:42:55;;;;;;;15.82;9.55;;;;;;;16.36;76.26;100239.78;10241489;28;20146;-54
2021/09/17 06:47:58;;;;;;;11.30;8.07;;;;;;;16.49;75.89;100234.78;10222464;28;20716;-60
2021/09/17 06:53:00;;;;;;;10.07;9.18;;;;;;;16.53;75.86;100241.53;10200079;28;20051;-56
2021/09/17 06:58:04;;;;;;;13.60;9.05;;;;;;;16.66;76.15;100234.84;10237124;28;20078;-57
2021/09/17 07:03:05;;;;;;;17.15;9.80;;;;;;;16.76;75.52;100239.06;10240259;28;20484;-58
2021/09/17 07:08:09;;;;;;;16.25;10.73;;;;;;;16.94;75.16;100244.34;10220262;28;20156;-57
2021/09/17 07:13:11;;;;;;;10.25;9.25;;;;;;;17.03;74.84;100241.69;10214617;28;20078;-55
2021/09/17 07:18:13;;;;;;;11.85;8.85;;;;;;;17.08;74.72;100239.31;10204053;28;20264;-56
2021/09/17 07:23:15;;;;;;;11.70;9.15;;;;;;;17.25;74.39;100237.47;10238490;28;20061;-57
2021/09/17 07:28:16;;;;;;;14.25;10.25;;;;;;;17.26;74.13;100236.47;10237087;28;20511;-57
2021/09/17 07:33:18;;;;;;;10.88;9.85;;;;;;;17.22;75.11;100219.84;10240222;28;20080;-57
2021/09/17 07:38:19;;;;;;;12.20;9.98;;;;;;;17.26;74.19;100207.75;10239929;28;20078;-56
2021/09/17 07:43:21;;;;;;;11.93;9.10;;;;;;;17.50;73.88;100227.56;10207291;28;20130;-56
2021/09/17 07:48:22;;;;;;;12.57;9.93;;;;;;;17.61;73.95;100229.91;10201922;28;20065;-58
2021/09/17 07:53:23;;;;;;;11.85;9.55;;;;;;;17.64;73.55;100240.34;10199924;28;20166;-56
2021/09/17 07:58:25;;;;;;;12.23;9.55;;;;;;;17.77;73.04;100229.03;10200714;28;20134;-55
2021/09/17 08:03:31;;;;;;;10.45;8.95;;;;;;;17.95;72.35;100236.09;10219120;28;20074;-55
2021/09/17 08:08:33;;;;;;;12.30;10.30;;;;;;;17.93;71.15;100214.72;10199254;28;20091;-56
2021/09/17 08:13:35;;;;;;;12.35;10.52;;;;;;;18.20;71.51;100240.41;10209118;28;20058;-57
2021/09/17 08:18:39;;;;;;;15.65;10.48;;;;;;;18.43;70.23;100236.94;10214316;28;20057;-57
2021/09/17 08:23:41;;;;;;;12.70;10.77;;;;;;;18.70;69.37;100240.19;10231118;28;20081;-57
2021/09/17 08:28:43;;;;;;;12.73;10.93;;;;;;;18.96;68.77;100239.91;10199983;28;20063;-56
2021/09/17 08:33:45;;;;;;;13.30;10.45;;;;;;;19.11;67.69;100231.03;10214241;28;20129;-56
2021/09/17 08:38:47;;;;;;;12.85;9.93;;;;;;;19.40;67.06;100231.13;10259027;23;20069;-75
2021/09/17 08:43:48;;;;;;;14.75;11.93;;;;;;;19.59;65.71;100234.31;10259807;28;20121;-72
2021/09/17 08:48:50;;;;;;;13.68;11.10;;;;;;;19.78;65.68;100249.22;10256274;28;20138;-72
2021/09/17 08:53:52;;;;;;;14.20;12.73;;;;;;;19.84;64.65;100243.06;10254918;28;20047;-72
2021/09/17 08:58:54;;;;;;;18.30;12.73;;;;;;;19.92;63.95;100239.44;10283151;28;20038;-72
2021/09/17 09:04:02;;;;;;;13.82;12.23;;;;;;;20.11;63.27;100240.75;10261464;28;20070;-72
2021/09/17 09:09:14;;;;;;;14.73;12.60;;;;;;;20.36;62.21;100235.91;10262452;28;20054;-72
2021/09/17 09:14:16;;;;;;;16.98;12.43;;;;;;;20.68;61.48;100224.88;10256337;28;20137;-73
2021/09/17 09:19:26;;;;;;;18.13;12.32;;;;;;;20.93;60.07;100231.63;10236540;28;20108;-71
2021/09/17 09:24:28;;;;;;;16.48;11.88;;;;;;;21.18;58.57;100221.25;10227204;28;20122;-72
2021/09/17 09:29:30;;;;;;;14.25;11.77;;;;;;;21.45;57.49;100223.34;10228396;28;20082;-72
2021/09/17 09:34:55;;;;;;;13.60;12.15;;;;;;;21.70;56.29;100216.47;10241667;28;20055;-73
2021/09/17 09:40:06;;;;;;;11.02;10.00;;;;;;;21.94;56.79;100208.94;10243792;28;20047;-72
2021/09/17 09:45:14;;;;;;;16.25;12.30;;;;;;;22.28;54.36;100207.25;10251164;28;20067;-72
2021/09/17 09:50:24;;;;;;;13.07;10.38;;;;;;;22.44;54.99;100199.81;10225896;28;20091;-71
2021/09/17 09:55:25;;;;;;;15.50;11.57;;;;;;;22.72;53.95;100197.00;10238900;28;20101;-72
2021/09/17 10:00:27;;;;;;;12.05;10.68;;;;;;;22.85;52.60;100190.75;10225495;28;20085;-72
2021/09/17 10:05:31;;;;;;;11.77;10.27;;;;;;;23.08;52.27;100202.06;10247626;28;20052;-72
2021/09/17 10:10:32;;;;;;;10.98;9.88;;;;;;;23.03;51.07;100201.00;10228969;28;20138;-72
2021/09/17 10:15:35;;;;;;;12.55;10.43;;;;;;;23.52;50.21;100182.69;10233040;28;20113;-73
2021/09/17 10:20:46;;;;;;;11.73;9.98;;;;;;;23.69;48.75;100188.50;10253370;28;20046;-72
2021/09/17 10:26:02;;;;;;;9.80;8.63;;;;;;;23.97;48.43;100189.09;10251997;28;20097;-72
2021/09/17 10:31:16;;;;;;;10.43;8.65;;;;;;;23.74;47.37;100184.13;10261643;28;21434;-73
2021/09/17 10:36:43;;;;;;;7.93;6.78;;;;;;;23.54;47.78;100189.59;10250179;28;20062;-75
2021/09/17 10:42:13;;;;;;;9.15;8.25;;;;;;;23.49;48.15;100183.94;10224007;28;20051;-72
2021/09/17 10:47:39;;;;;;;9.77;8.77;;;;;;;22.94;50.42;100190.38;10233782;28;20146;-71
2021/09/17 10:52:48;;;;;;;9.48;8.57;;;;;;;22.35;51.32;100180.19;10259283;28;20185;-72
2021/09/17 10:58:30;;;;;;;9.18;7.32;;;;;;;22.01;51.47;100168.34;10245171;28;20498;-71
2021/09/17 11:03:40;;;;;;;8.45;7.18;;;;;;;21.88;52.33;100169.09;10191542;28;20051;-71
2021/09/17 11:08:47;;;;;;;7.35;6.53;;;;;;;21.99;51.39;100176.69;10190526;28;20046;-71
2021/09/17 11:13:51;;;;;;;5.72;5.22;;;;;;;22.25;51.32;100170.53;10262386;28;20082;-71
2021/09/17 11:18:59;;;;;;;;;;;;;;;22.53;50.28;100172.34;10270237;28;20062;-71
2021/09/17 11:24:03;;;;;;;7.68;6.55;;;;;;;22.44;50.18;100167.28;10271627;28;19930;-71
2021/09/17 11:29:10;;;;;;;6.78;5.30;;;;;;;22.21;51.80;100163.81;10257648;28;20510;-71
2021/09/17 11:34:13;;;;;;;7.45;5.43;;;;;;;22.01;52.17;100157.50;10253949;28;20061;-72
2021/09/17 11:39:21;;;;;;;6.47;5.57;;;;;;;21.94;52.32;100156.63;10256673;28;20094;-72
2021/09/17 11:44:44;;;;;;;5.85;5.28;;;;;;;21.69;53.10;100157.94;10233633;28;20047;-71
2021/09/17 11:49:46;;;;;;;7.20;6.50;;;;;;;21.62;53.11;100159.78;10235596;28;20050;-72
2021/09/17 11:55:00;;;;;;;7.88;6.05;;;;;;;21.51;52.92;100154.88;10235591;28;20109;-72
2021/09/17 12:00:13;;;;;;;6.13;5.55;;;;;;;21.54;53.31;100149.94;10242162;28;20513;-72
2021/09/17 12:05:16;;;;;;;7.88;6.50;;;;;;;21.62;52.79;100154.34;10253453;28;20470;-72
2021/09/17 12:10:23;;;;;;;5.45;4.95;;;;;;;21.66;52.97;100143.94;10267877;28;20355;-72
2021/09/17 12:15:33;;;;;;;5.78;4.65;;;;;;;21.57;53.17;100150.56;10217603;28;20555;-71
2021/09/17 12:20:44;;;;;;;5.30;4.72;;;;;;;21.70;52.92;100139.81;10243121;28;20293;-72
2021/09/17 12:25:48;;;;;;;9.63;5.45;;;;;;;21.87;52.48;100140.31;10256421;28;20050;-72
2021/09/17 12:30:53;;;;;;;5.72;4.82;;;;;;;21.98;52.49;100142.47;10253166;28;20058;-71
2021/09/17 12:36:06;;;;;;;5.80;5.20;;;;;;;24.54;46.20;100134.06;10260228;28;20061;-72
2021/09/17 12:41:12;;;;;;;5.70;5.15;;;;;;;23.65;46.67;100123.72;10262764;28;20468;-72
2021/09/17 12:46:34;;;;;;;6.28;5.38;;;;;;;22.90;48.17;100123.16;10267408;28;20059;-72
2021/09/17 12:51:36;;;;;;;5.30;4.80;;;;;;;22.32;50.67;100120.94;10237125;28;20051;-72
2021/09/17 12:56:41;;;;;;;4.90;4.15;;;;;;;22.22;51.70;100116.72;10237321;28;20055;-73
2021/09/17 13:01:46;;;;;;;5.88;4.35;;;;;;;21.83;52.78;100117.41;10222665;28;20494;-71
2021/09/17 13:06:49;;;;;;;8.52;5.05;;;;;;;21.77;52.23;100110.91;10214289;28;21025;-72
2021/09/17 13:11:54;;;;;;;5.50;4.35;;;;;;;21.84;52.76;100100.94;10205595;28;20055;-71
2021/09/17 13:16:58;;;;;;;6.93;6.05;;;;;;;21.68;52.24;100099.38;10222115;28;20102;-71
2021/09/17 13:22:00;;;;;;;6.72;4.85;;;;;;;21.76;53.38;100095.66;10235100;28;20121;-71
2021/09/17 13:27:01;;;;;;;5.28;4.55;;;;;;;21.94;53.19;100102.44;10235248;28;20228;-71
2021/09/17 13:32:03;;;;;;;6.00;4.18;;;;;;;22.03;53.37;100093.91;10261745;28;20074;-72
2021/09/17 13:37:05;;;;;;;4.38;3.85;;;;;;;22.16;52.87;100084.16;10260617;28;20053;-71
2021/09/17 13:42:08;;;;;;;3.58;2.60;;;;;;;22.71;50.24;100086.81;10241914;28;20565;-72
2021/09/17 13:47:09;;;;;;;3.35;2.45;;;;;;;24.31;47.29;100086.47;10232363;28;20114;-71
2021/09/17 13:52:11;;;;;;;3.90;2.13;;;;;;;25.20;43.86;100069.28;10247983;28;20055;-72
2021/09/17 13:57:12;;;;;;;2.90;2.60;;;;;;;25.10;42.05;100077.13;10222075;28;20106;-71
2021/09/17 14:02:13;;;;;;;5.65;1.83;;;;;;;25.19;40.77;100064.88;10219948;28;20070;-70
2021/09/17 14:07:15;;;;;;;2.63;1.57;;;;;;;25.09;41.73;100059.97;10223553;28;20102;-71
2021/09/17 14:12:18;;;;;;;1.92;1.83;;;;;;;24.49;42.52;100065.88;10229759;28;22849;-70
2021/09/17 14:17:19;;;;;;;2.22;1.85;;;;;;;24.54;41.48;100071.47;10235171;28;20067;-70
2021/09/17 14:22:20;;;;;;;2.75;2.03;;;;;;;24.52;42.64;100065.44;10245683;28;20137;-70
2021/09/17 14:27:22;;;;;;;2.88;1.60;;;;;;;24.13;41.84;100067.34;10258014;28;20050;-71
2021/09/17 14:32:23;;;;;;;2.97;1.77;;;;;;;23.64;43.68;100056.88;10258377;28;20146;-71
2021/09/17 14:37:25;;;;;;;1.75;1.00;;;;;;;23.54;43.60;100053.75;10259147;28;20130;-71
2021/09/17 14:42:26;;;;;;;9.57;3.25;;;;;;;23.15;44.53;100052.81;10257965;28;20058;-71
2021/09/17 14:47:28;;;;;;;4.75;1.75;;;;;;;23.00;44.78;100053.00;10259918;23;20061;-54
2021/09/17 14:52:30;;;;;;;1.58;1.20;;;;;;;22.78;45.20;100055.91;10241172;28;20114;-57
2021/09/17 14:57:31;;;;;;;1.40;1.30;;;;;;;22.76;45.24;100059.91;10242199;28;20154;-55
2021/09/17 15:02:33;;;;;;;2.88;1.90;;;;;;;;;;10239007;28;20055;-56
2021/09/17 15:07:35;;;;;;;1.60;1.50;;;;;;;22.60;45.40;100042.97;10240873;28;20504;-56
2021/09/17 15:12:39;;;;;;;3.63;2.67;;;;;;;22.55;46.75;100040.06;10236817;28;20058;-56
2021/09/17 15:17:48;;;;;;;1.88;1.30;;;;;;;22.58;47.09;100047.78;10236864;28;20875;-54
2021/09/17 15:22:50;;;;;;;2.38;1.40;;;;;;;22.57;47.48;100037.97;10225207;28;20063;-54
2021/09/17 15:27:54;;;;;;;1.52;1.42;;;;;;;22.64;45.87;100042.56;10238940;28;20051;-54
2021/09/17 15:32:55;;;;;;;2.30;1.50;;;;;;;22.49;47.10;100040.88;10242814;28;20058;-53
2021/09/17 15:37:59;;;;;;;1.65;1.42;;;;;;;22.56;47.22;100033.59;10242328;28;20065;-56
2021/09/17 15:43:01;;;;;;;;;;;;;;;22.46;47.46;100035.88;10239720;28;20051;-55
2021/09/17 15:48:02;;;;;;;1.60;1.50;;;;;;;22.22;47.07;100029.97;10241487;28;20024;-55
2021/09/17 15:53:04;;;;;;;2.05;1.60;;;;;;;22.07;47.33;100032.84;10240910;28;20065;-55
2021/09/17 15:58:05;;;;;;;4.22;2.33;;;;;;;22.02;47.39;100019.09;10239957;28;20062;-56
2021/09/17 16:03:07;;;;;;;2.17;1.90;;;;;;;21.84;47.66;100033.19;10247434;28;20066;-57
2021/09/17 16:08:09;;;;;;;3.80;1.95;;;;;;;21.80;48.63;100028.38;10246972;28;21652;-57
2021/09/17 16:13:11;;;;;;;3.58;1.60;;;;;;;21.87;49.09;100027.38;10241480;28;20495;-58
2021/09/17 16:18:13;;;;;;;2.85;1.70;;;;;;;21.87;49.56;100032.78;10237745;28;20062;-59
2021/09/17 16:23:15;;;;;;;2.90;1.83;;;;;;;21.75;49.60;100028.97;10237749;28;20412;-58
2021/09/17 16:28:16;;;;;;;2.72;2.00;;;;;;;21.67;50.74;100018.34;10244277;28;20495;-57
2021/09/17 16:33:18;;;;;;;2.00;1.80;;;;;;;21.65;49.81;100023.13;10241808;28;20508;-55
2021/09/17 16:38:19;;;;;;;1.50;1.40;;;;;;;21.27;49.48;100037.03;10243906;28;20054;-56
2021/09/17 16:43:21;;;;;;;2.45;1.75;;;;;;;21.23;50.83;100020.38;10241467;28;20086;-58
2021/09/17 16:48:22;;;;;;;1.75;1.65;;;;;;;21.36;50.86;100030.44;10243833;28;20608;-59
2021/09/17 16:53:30;;;;;;;2.58;2.08;;;;;;;21.15;51.74;100018.66;10242801;28;20146;-56
2021/09/17 16:58:31;;;;;;;3.40;1.98;;;;;;;20.93;52.24;100030.59;10239737;28;20043;-56
2021/09/17 17:03:32;;;;;;;3.55;2.10;;;;;;;20.92;52.61;100028.91;10242268;28;20070;-57
2021/09/17 17:08:34;;;;;;;3.17;2.17;;;;;;;20.78;53.20;100023.38;10241110;28;20057;-56
2021/09/17 17:13:36;;;;;;;3.53;2.17;;;;;;;20.68;53.32;100017.47;10240114;28;20065;-58
2021/09/17 17:18:37;;;;;;;2.78;2.58;;;;;;;20.55;53.77;100025.44;10243161;28;20051;-58
2021/09/17 17:23:49;;;;;;;2.53;2.30;;;;;;;20.45;54.18;100028.50;10200098;28;20055;-55
2021/09/17 17:28:51;;;;;;;3.63;2.50;;;;;;;20.28;55.09;100022.47;10234766;28;20050;-57
2021/09/17 17:33:52;;;;;;;2.83;2.63;;;;;;;20.18;55.74;100028.22;10230816;28;20082;-58
2021/09/17 17:38:54;;;;;;;4.05;3.15;;;;;;;20.04;56.91;100027.25;10241092;28;20093;-57
2021/09/17 17:43:59;;;;;;;5.43;3.67;;;;;;;20.05;57.57;100028.91;10241042;28;20107;-60
2021/09/17 17:49:00;;;;;;;5.70;5.20;;;;;;;19.91;57.80;100017.13;10241874;28;20059;-55
2021/09/17 17:54:02;;;;;;;4.78;4.38;;;;;;;20.00;58.85;100036.75;10240351;28;20546;-54
2021/09/17 17:59:03;;;;;;;7.03;5.85;;;;;;;19.84;60.28;100042.38;10237628;28;20043;-56
2021/09/17 18:04:05;;;;;;;5.82;5.22;;;;;;;19.90;60.30;100030.81;10237994;28;20054;-56
2021/09/17 18:09:07;;;;;;;5.93;5.43;;;;;;;19.80;59.76;100046.47;10239794;28;20134;-54
2021/09/17 18:14:08;;;;;;;6.40;5.80;;;;;;;19.71;60.34;100034.91;10238063;28;20412;-57
2021/09/17 18:19:10;;;;;;;7.55;6.85;;;;;;;19.77;61.89;100048.53;10240121;28;20059;-56
2021/09/17 18:24:11;;;;;;;9.38;8.48;;;;;;;19.84;62.05;100047.78;10239116;28;20089;-57
2021/09/17 18:29:13;;;;;;;9.10;8.23;;;;;;;19.85;61.76;100047.59;10239888;28;20056;-56
2021/09/17 18:34:15;;;;;;;10.25;8.15;;;;;;;19.79;62.35;100051.06;10239214;28;20456;-55
2021/09/17 18:39:17;;;;;;;8.60;7.75;;;;;;;19.64;62.80;100048.34;10239974;28;20191;-57
2021/09/17 18:44:18;;;;;;;9.55;8.65;;;;;;;19.58;63.80;100054.50;10237905;28;20505;-55
2021/09/17 18:49:20;;;;;;;10.05;8.98;;;;;;;19.53;64.01;100067.69;10240442;28;20106;-54
2021/09/17 18:54:25;;;;;;;8.32;7.53;;;;;;;19.33;64.46;100038.56;10238541;28;20042;-57
2021/09/17 18:59:27;;;;;;;7.28;6.65;;;;;;;19.39;64.08;100067.50;10237846;28;20508;-55
2021/09/17 19:04:28;;;;;;;6.35;5.85;;;;;;;19.35;63.47;100068.94;10234506;28;20078;-58
2021/09/17 19:09:30;;;;;;;5.90;5.40;;;;;;;19.21;63.89;100067.03;10240762;28;20058;-57
2021/09/17 19:14:33;;;;;;;7.68;6.20;;;;;;;19.29;63.74;100091.25;10236903;28;20055;-55
2021/09/17 19:19:35;;;;;;;5.70;5.20;;;;;;;19.26;63.42;100091.63;10237150;28;20226;-57
2021/09/17 19:24:37;;;;;;;5.15;4.72;;;;;;;19.24;63.17;100091.78;10237286;28;20054;-56
2021/09/17 19:29:38;;;;;;;6.28;5.68;;;;;;;19.23;63.17;100094.66;10238818;28;20464;-54
2021/09/17 19:34:40;;;;;;;9.50;6.22;;;;;;;19.17;63.61;100092.69;10236955;28;20806;-56
2021/09/17 19:39:41;;;;;;;8.35;7.38;;;;;;;19.10;64.34;100100.72;10236366;28;20190;-60
2021/09/17 19:44:43;;;;;;;7.00;6.32;;;;;;;19.05;64.70;100098.56;10236841;28;20138;-57
2021/09/17 19:49:45;;;;;;;7.00;6.32;;;;;;;18.90;66.08;100105.78;10233029;28;20054;-57
2021/09/17 19:54:46;;;;;;;7.65;5.95;;;;;;;18.74;65.56;100101.31;10238363;28;20293;-55
2021/09/17 19:59:48;;;;;;;6.32;5.70;;;;;;;18.69;66.97;100107.25;10240171;28;20467;-57
2021/09/17 20:04:49;;;;;;;7.07;5.78;;;;;;;18.75;66.81;100107.53;10240447;28;20070;-54
2021/09/17 20:09:50;;;;;;;6.32;5.72;;;;;;;18.71;66.86;100113.28;10245719;28;20062;-57
2021/09/17 20:14:52;;;;;;;6.60;5.90;;;;;;;18.72;67.41;100109.59;10241441;28;20460;-62
2021/09/17 20:19:53;;;;;;;6.57;5.93;;;;;;;18.69;67.03;100115.34;10244078;28;20644;-57
2021/09/17 20:24:56;;;;;;;8.63;7.20;;;;;;;18.71;66.42;100110.59;10232779;28;20055;-57
2021/09/17 20:29:57;;;;;;;6.78;6.18;;;;;;;18.59;67.00;100093.19;10249797;28;20109;-58
2021/09/17 20:35:12;;;;;;;7.65;6.95;;;;;;;18.64;66.98;100112.34;10257617;28;20066;-57
2021/09/17 20:40:17;;;;;;;7.68;6.80;;;;;;;18.58;66.99;100113.06;10249611;28;20082;-56
2021/09/17 20:45:22;;;;;;;7.22;6.57;;;;;;;18.56;67.64;100115.09;10243605;28;20456;-57
2021/09/17 20:50:23;;;;;;;7.90;7.07;;;;;;;18.52;67.12;100125.38;10243466;28;20274;-57
2021/09/17 20:55:25;;;;;;;6.75;6.15;;;;;;;18.41;67.46;100138.44;10247956;28;20047;-55
2021/09/17 21:00:26;;;;;;;7.38;6.78;;;;;;;17.93;67.46;100092.72;10255607;28;20130;-57
2021/09/17 21:05:28;;;;;;;7.28;6.68;;;;;;;18.16;67.99;100130.47;10260993;28;20113;-57
2021/09/17 21:10:29;;;;;;;7.63;6.93;;;;;;;18.13;69.57;100137.06;10247283;28;20461;-56
2021/09/17 21:15:31;;;;;;;7.95;7.15;;;;;;;18.19;69.37;100127.44;10242959;28;20126;-56
2021/09/17 21:20:33;;;;;;;8.40;7.57;;;;;;;18.17;70.01;100126.78;10254783;28;20120;-55
2021/09/17 21:25:34;;;;;;;8.20;6.97;;;;;;;18.19;69.97;100130.13;10247227;28;20055;-57
2021/09/17 21:30:39;;;;;;;10.25;7.38;;;;;;;18.14;69.95;100127.13;10252537;28;20043;-57
2021/09/17 21:35:40;;;;;;;7.57;6.55;;;;;;;18.18;70.06;100123.09;10249230;28;20057;-57
2021/09/17 21:40:42;;;;;;;7.60;6.93;;;;;;;17.98;70.23;100117.28;10254965;28;20390;-57
2021/09/17 21:45:43;;;;;;;8.98;8.07;;;;;;;18.07;69.66;100132.38;10249075;28;20047;-57
2021/09/17 21:50:45;;;;;;;7.88;6.93;;;;;;;17.87;69.17;100126.53;10246973;28;20054;-57
2021/09/17 21:55:47;;;;;;;7.43;6.38;;;;;;;17.47;70.00;100131.03;10246542;28;20090;-56
2021/09/17 22:00:48;;;;;;;7.78;7.10;;;;;;;17.05;71.11;100119.47;10247203;28;20054;-57
2021/09/17 22:05:50;;;;;;;6.25;5.75;;;;;;;17.29;70.79;100134.78;10269937;23;20047;-61
2021/09/17 22:10:51;;;;;;;7.10;6.40;;;;;;;17.25;71.44;100125.34;10274393;28;20124;-61
2021/09/17 22:15:53;;;;;;;6.82;6.22;;;;;;;17.41;70.80;100126.34;10271836;28;20053;-61
2021/09/17 22:20:55;;;;;;;6.88;6.18;;;;;;;17.47;69.34;100122.97;10273041;28;20524;-61
2021/09/17 22:25:56;;;;;;;8.15;7.35;;;;;;;17.39;71.40;100125.69;10268713;28;20046;-61
2021/09/17 22:30:57;;;;;;;8.35;7.53;;;;;;;17.45;71.38;100127.69;10265071;28;20125;-60
2021/09/17 22:35:59;;;;;;;9.73;8.27;;;;;;;17.44;71.54;100124.16;10270200;28;20124;-62
2021/09/17 22:41:01;;;;;;;9.65;8.65;;;;;;;17.35;71.64;100122.47;10267881;28;20054;-62
2021/09/17 22:46:02;;;;;;;9.30;8.45;;;;;;;17.30;71.86;100132.91;10276935;28;20527;-62
2021/09/17 22:51:04;;;;;;;9.40;8.43;;;;;;;17.31;72.09;100129.22;10276130;28;20160;-62
2021/09/17 22:56:05;;;;;;;9.25;8.23;;;;;;;17.24;72.01;100133.59;10284423;28;20057;-62
2021/09/17 23:01:07;;;;;;;10.43;8.93;;;;;;;17.17;72.29;100137.97;10274905;28;20109;-60
2021/09/17 23:06:09;;;;;;;10.13;9.23;;;;;;;17.16;72.76;100139.84;10266185;28;20050;-62
2021/09/17 23:11:11;;;;;;;9.70;8.63;;;;;;;17.16;72.95;100139.84;10256902;28;20047;-62